Time;durP1;ratioP1;P1;durP2;ratioP2;P2;SDS_P1;SDS_P2;PMS_P1;PMS_P2;Temp;Humidity;BMP_temperature;BMP_pressure;BME280_temperature;BME280_humidity;BME280_pressure;Samples;Min_cycle;Max_cycle;Signal;HPM_P1;HPM_P2
2023/12/02 00:00:17;;;;;;;25.90;16.55;;;3.80;90.80;;;;;;4253452;27;20054;-57
2023/12/02 00:02:19;;;;;;;27.63;18.73;;;3.80;91.10;;;;;;4251418;27;20429;-61
2023/12/02 00:04:21;;;;;;;25.25;17.20;;;3.90;91.30;;;;;;4250752;27;20125;-56
2023/12/02 00:06:23;;;;;;;29.75;19.48;;;3.80;91.10;;;;;;4250596;27;20397;-56
2023/12/02 00:08:25;;;;;;;30.33;19.10;;;3.80;91.30;;;;;;4250436;27;20039;-57
2023/12/02 00:10:27;;;;;;;29.60;19.65;;;3.80;91.00;;;;;;4250514;27;20043;-56
2023/12/02 00:12:30;;;;;;;24.25;17.30;;;3.80;91.00;;;;;;4250531;27;20051;-56
2023/12/02 00:14:32;;;;;;;31.23;18.23;;;3.80;90.80;;;;;;4250444;27;20043;-56
2023/12/02 00:16:36;;;;;;;29.95;19.45;;;3.90;91.40;;;;;;4249876;27;20447;-56
2023/12/02 00:18:38;;;;;;;29.23;19.30;;;3.90;91.00;;;;;;4249871;27;20047;-57
2023/12/02 00:20:40;;;;;;;28.77;19.00;;;3.90;91.20;;;;;;4250111;27;20057;-56
2023/12/02 00:22:42;;;;;;;28.67;20.50;;;3.90;91.50;;;;;;4250313;27;20047;-56
2023/12/02 00:24:44;;;;;;;30.02;19.05;;;3.90;91.10;;;;;;4249622;27;20078;-55
2023/12/02 00:26:46;;;;;;;30.77;19.25;;;3.90;91.50;;;;;;4249927;27;20039;-55
2023/12/02 00:28:48;;;;;;;29.63;20.27;;;3.90;91.10;;;;;;4249901;27;20074;-55
2023/12/02 00:30:50;;;;;;;29.20;18.92;;;3.90;91.10;;;;;;4249720;27;20489;-55
2023/12/02 00:32:53;;;;;;;27.45;17.95;;;3.90;91.40;;;;;;4249811;27;20043;-56
2023/12/02 00:34:56;;;;;;;28.63;19.77;;;4.00;91.80;;;;;;4250069;27;20047;-56
2023/12/02 00:36:58;;;;;;;32.28;20.30;;;4.10;91.60;;;;;;4249979;27;20070;-57
2023/12/02 00:39:00;;;;;;;29.92;19.92;;;4.00;91.00;;;;;;4250102;27;20051;-56
2023/12/02 00:41:03;;;;;;;28.77;19.85;;;3.90;91.20;;;;;;4250018;27;20073;-55
2023/12/02 00:43:05;;;;;;;31.38;20.02;;;3.90;90.80;;;;;;4249989;27;20516;-56
2023/12/02 00:45:08;;;;;;;30.70;18.50;;;3.90;90.80;;;;;;4249426;27;20050;-55
2023/12/02 00:47:10;;;;;;;28.50;19.48;;;3.80;90.60;;;;;;4249322;27;20493;-56
2023/12/02 00:49:14;;;;;;;30.65;20.08;;;3.80;90.80;;;;;;4249867;27;20401;-55
2023/12/02 00:51:16;;;;;;;27.48;18.27;;;3.80;91.00;;;;;;4249524;27;20134;-56
2023/12/02 00:53:19;;;;;;;27.98;17.98;;;3.80;91.20;;;;;;4249833;27;20051;-57
2023/12/02 00:55:21;;;;;;;28.45;18.92;;;3.80;90.80;;;;;;4249373;27;20460;-57
2023/12/02 00:57:24;;;;;;;27.27;19.05;;;3.90;91.60;;;;;;4249610;27;20054;-56
2023/12/02 00:59:26;;;;;;;28.77;19.75;;;3.80;91.20;;;;;;4249310;27;20063;-56
2023/12/02 01:01:28;;;;;;;26.98;19.08;;;3.80;91.10;;;;;;4249863;27;20054;-56
2023/12/02 01:03:30;;;;;;;23.65;16.23;;;3.70;91.10;;;;;;4249479;27;20054;-55
2023/12/02 01:05:34;;;;;;;25.48;15.57;;;3.60;90.40;;;;;;4231471;28;20047;-56
2023/12/02 01:07:36;;;;;;;26.13;15.57;;;3.50;90.20;;;;;;4249599;27;20035;-56
2023/12/02 01:09:38;;;;;;;27.20;14.20;;;3.40;90.20;;;;;;4249368;27;20147;-56
2023/12/02 01:11:40;;;;;;;23.10;14.25;;;3.40;89.60;;;;;;4249743;27;20081;-56
2023/12/02 01:13:42;;;;;;;20.90;15.07;;;3.30;90.00;;;;;;4249658;27;20062;-56
2023/12/02 01:15:44;;;;;;;26.33;16.80;;;3.30;90.10;;;;;;4249435;27;20081;-55
2023/12/02 01:17:46;;;;;;;21.42;14.90;;;3.30;90.30;;;;;;4249452;27;20057;-56
2023/12/02 01:19:48;;;;;;;36.85;17.75;;;3.40;90.70;;;;;;4249459;27;20043;-56
2023/12/02 01:21:52;;;;;;;25.58;16.00;;;3.40;90.50;;;;;;4250979;27;20051;-56
2023/12/02 01:23:54;;;;;;;26.58;16.23;;;3.40;90.40;;;;;;4252420;27;20050;-57
2023/12/02 01:25:56;;;;;;;24.80;16.98;;;3.30;90.50;;;;;;4252300;27;20043;-56
2023/12/02 01:27:58;;;;;;;23.05;15.90;;;3.30;90.50;;;;;;4251626;27;20051;-56
2023/12/02 01:30:00;;;;;;;25.85;16.30;;;3.30;90.50;;;;;;4252007;27;20047;-59
2023/12/02 01:32:03;;;;;;;24.95;16.23;;;3.40;91.00;;;;;;4252076;27;20078;-55
2023/12/02 01:34:05;;;;;;;24.20;16.63;;;3.50;90.80;;;;;;4252586;27;20118;-56
2023/12/02 01:36:12;;;;;;;24.42;16.75;;;3.50;91.40;;;;;;4252084;27;20081;-61
2023/12/02 01:38:16;;;;;;;25.80;17.42;;;3.60;90.70;;;;;;4251005;27;20058;-56
2023/12/02 01:40:18;;;;;;;25.45;17.00;;;3.60;90.80;;;;;;4252255;27;20494;-58
2023/12/02 01:42:20;;;;;;;25.48;18.20;;;3.60;91.00;;;;;;4249911;27;20514;-56
2023/12/02 01:44:22;;;;;;;28.30;18.80;;;3.60;90.90;;;;;;4248991;27;20043;-56
2023/12/02 01:46:24;;;;;;;23.77;15.95;;;3.70;91.30;;;;;;4248968;27;20079;-55
2023/12/02 01:48:32;;;;;;;25.48;17.35;;;3.80;91.60;;;;;;4249062;27;20126;-55
2023/12/02 01:50:34;;;;;;;26.80;17.35;;;3.70;90.80;;;;;;4249165;27;20039;-57
2023/12/02 01:52:36;;;;;;;25.83;15.82;;;3.70;91.20;;;;;;4248742;27;20054;-57
2023/12/02 01:54:40;;;;;;;25.98;17.73;;;3.80;91.80;;;;;;4248759;27;20063;-57
2023/12/02 01:56:42;;;;;;;31.08;19.52;;;4.00;91.60;;;;;;4248690;27;20039;-56
2023/12/02 01:58:45;;;;;;;29.27;20.33;;;4.00;91.30;;;;;;4247235;27;20049;-57
2023/12/02 02:00:47;;;;;;;28.40;18.77;;;3.80;90.80;;;;;;4248707;27;20078;-57
2023/12/02 02:02:49;;;;;;;29.05;20.42;;;3.70;90.90;;;;;;4248551;27;20092;-57
2023/12/02 02:04:52;;;;;;;33.90;21.38;;;3.70;91.10;;;;;;4248311;27;20067;-58
2023/12/02 02:06:54;;;;;;;30.58;20.05;;;3.60;91.20;;;;;;4248506;27;20438;-56
2023/12/02 02:08:56;;;;;;;29.40;19.15;;;3.50;91.20;;;;;;4248432;27;20043;-56
2023/12/02 02:11:00;;;;;;;30.17;19.33;;;3.50;91.30;;;;;;4248509;27;20107;-55
2023/12/02 02:13:02;;;;;;;32.53;21.20;;;3.50;92.10;;;;;;4247990;27;20047;-56
2023/12/02 02:15:05;;;;;;;29.15;19.83;;;3.50;91.50;;;;;;4248190;27;20039;-56
2023/12/02 02:17:07;;;;;;;32.33;20.27;;;3.60;91.80;;;;;;4248295;27;20047;-57
2023/12/02 02:19:11;;;;;;;28.60;18.55;;;3.60;91.80;;;;;;4248216;27;20063;-55
2023/12/02 02:21:16;;;;;;;26.13;13.98;;;3.50;91.50;;;;;;4248240;27;20130;-56
2023/12/02 02:23:19;;;;;;;28.52;19.58;;;3.50;91.10;;;;;;4248342;27;20057;-56
2023/12/02 02:25:21;;;;;;;29.73;19.15;;;3.40;90.90;;;;;;4248174;27;20070;-55
2023/12/02 02:27:23;;;;;;;28.52;18.67;;;3.40;91.20;;;;;;4247815;27;20038;-56
2023/12/02 02:29:26;;;;;;;29.38;18.85;;;3.40;91.70;;;;;;4247909;27;20130;-57
2023/12/02 02:31:29;;;;;;;27.48;18.25;;;3.40;91.50;;;;;;4248472;27;20047;-56
2023/12/02 02:33:34;;;;;;;27.45;19.15;;;3.50;91.60;;;;;;4248261;27;20078;-55
2023/12/02 02:35:36;;;;;;;29.45;20.25;;;3.40;91.20;;;;;;4229843;28;20043;-55
2023/12/02 02:37:39;;;;;;;30.58;20.60;;;3.40;91.40;;;;;;4247537;27;20084;-56
2023/12/02 02:39:41;;;;;;;32.47;22.20;;;3.30;91.50;;;;;;4247969;27;20439;-57
2023/12/02 02:41:44;;;;;;;31.27;20.60;;;3.30;91.70;;;;;;4247918;27;20069;-56
2023/12/02 02:43:46;;;;;;;40.35;23.20;;;3.20;92.20;;;;;;4247727;27;20462;-57
2023/12/02 02:45:49;;;;;;;32.75;22.10;;;3.30;92.10;;;;;;4247788;27;20063;-57
2023/12/02 02:47:51;;;;;;;31.70;21.48;;;3.30;92.20;;;;;;4247759;27;20070;-57
2023/12/02 02:49:54;;;;;;;40.50;24.08;;;3.30;92.50;;;;;;4247764;27;20092;-55
2023/12/02 02:51:56;;;;;;;36.47;23.33;;;3.40;92.30;;;;;;4247809;27;20544;-58
2023/12/02 02:53:59;;;;;;;42.15;24.85;;;3.40;92.30;;;;;;4247685;27;20047;-55
2023/12/02 02:56:01;;;;;;;37.08;23.65;;;3.40;92.60;;;;;;4247441;27;20067;-57
2023/12/02 02:58:03;;;;;;;37.45;23.08;;;3.40;92.50;;;;;;4247834;27;20096;-57
2023/12/02 03:00:09;;;;;;;38.85;25.60;;;3.40;92.60;;;;;;4249303;27;20043;-60
2023/12/02 03:02:11;;;;;;;37.20;24.50;;;3.20;92.10;;;;;;4251175;27;20058;-61
2023/12/02 03:04:13;;;;;;;37.72;22.35;;;3.30;92.70;;;;;;4250556;27;20207;-55
2023/12/02 03:06:16;;;;;;;36.33;23.27;;;3.30;92.50;;;;;;4249143;27;20047;-57
2023/12/02 03:08:18;;;;;;;40.17;24.75;;;3.30;92.70;;;;;;4247695;27;20162;-54
2023/12/02 03:10:22;;;;;;;36.60;23.17;;;3.30;92.50;;;;;;4247319;27;20133;-57
2023/12/02 03:12:25;;;;;;;34.63;23.52;;;3.30;92.40;;;;;;4247926;27;20055;-56
2023/12/02 03:14:27;;;;;;;37.78;23.13;;;3.30;92.40;;;;;;4247684;28;20043;-56
2023/12/02 03:16:29;;;;;;;34.85;21.85;;;3.20;92.20;;;;;;4247508;28;20039;-57
2023/12/02 03:18:31;;;;;;;32.17;21.33;;;3.20;92.50;;;;;;4247680;28;20137;-56
2023/12/02 03:20:34;;;;;;;36.92;23.90;;;3.20;93.10;;;;;;4247684;28;20066;-57
2023/12/02 03:22:36;;;;;;;38.15;24.00;;;3.10;92.80;;;;;;4247593;28;20039;-56
2023/12/02 03:24:38;;;;;;;39.33;23.23;;;3.00;93.00;;;;;;4247210;28;20054;-56
2023/12/02 03:26:41;;;;;;;35.38;22.70;;;3.00;92.90;;;;;;4247653;28;20054;-56
2023/12/02 03:28:43;;;;;;;35.58;22.58;;;3.10;93.30;;;;;;4229381;28;20043;-56
2023/12/02 03:30:46;;;;;;;32.80;21.85;;;3.00;92.90;;;;;;4247238;28;20043;-58
2023/12/02 03:32:48;;;;;;;32.72;22.60;;;3.10;93.50;;;;;;4247305;28;20413;-56
2023/12/02 03:34:50;;;;;;;38.63;25.25;;;3.10;93.10;;;;;;4247521;28;20058;-56
2023/12/02 03:36:52;;;;;;;34.97;22.63;;;3.10;92.90;;;;;;4247804;28;20042;-56
2023/12/02 03:38:54;;;;;;;30.70;20.58;;;3.10;92.90;;;;;;4247153;28;20055;-55
2023/12/02 03:40:56;;;;;;;34.20;22.35;;;3.10;93.80;;;;;;4247315;28;20470;-56
2023/12/02 03:43:00;;;;;;;39.17;25.48;;;3.00;93.70;;;;;;4247348;28;20043;-56
2023/12/02 03:45:02;;;;;;;38.60;24.38;;;2.90;93.10;;;;;;4247217;28;20085;-55
2023/12/02 03:47:04;;;;;;;35.95;22.48;;;2.90;93.20;;;;;;4247616;28;20047;-55
2023/12/02 03:49:06;;;;;;;39.03;24.90;;;2.90;93.60;;;;;;4247421;28;20130;-55
2023/12/02 03:51:09;;;;;;;38.65;24.58;;;2.90;93.50;;;;;;4247250;28;20126;-56
2023/12/02 03:53:11;;;;;;;40.13;24.92;;;2.90;93.60;;;;;;4246925;28;20055;-56
2023/12/02 03:55:13;;;;;;;38.28;23.55;;;2.80;93.10;;;;;;4247226;28;20130;-56
2023/12/02 03:57:15;;;;;;;44.08;26.10;;;2.70;93.70;;;;;;4229241;28;20495;-56
2023/12/02 03:59:19;;;;;;;39.78;24.92;;;2.60;93.80;;;;;;4246982;28;20039;-55
2023/12/02 04:01:22;;;;;;;38.30;24.48;;;2.60;94.00;;;;;;4247294;28;20051;-56
2023/12/02 04:03:24;;;;;;;38.75;24.58;;;2.60;94.40;;;;;;4247094;28;20092;-57
2023/12/02 04:05:26;;;;;;;36.00;23.38;;;2.50;94.00;;;;;;4247124;28;20364;-57
2023/12/02 04:07:28;;;;;;;38.40;25.30;;;2.60;94.80;;;;;;4246971;28;20051;-56
2023/12/02 04:09:31;;;;;;;40.20;24.60;;;2.60;94.40;;;;;;4246987;28;20062;-57
2023/12/02 04:11:33;;;;;;;41.80;26.65;;;2.50;94.00;;;;;;4247105;28;20043;-54
2023/12/02 04:13:35;;;;;;;38.22;24.40;;;2.50;94.30;;;;;;4247274;28;20066;-56
2023/12/02 04:15:39;;;;;;;41.25;26.02;;;2.70;94.60;;;;;;4247003;28;20490;-55
2023/12/02 04:17:41;;;;;;;40.22;24.30;;;2.60;94.20;;;;;;4246994;28;20050;-57
2023/12/02 04:19:43;;;;;;;41.55;26.30;;;2.70;95.00;;;;;;4228960;28;20570;-57
2023/12/02 04:21:45;;;;;;;43.92;27.35;;;2.60;94.20;;;;;;4230131;28;20462;-55
2023/12/02 04:23:47;;;;;;;41.80;25.80;;;2.50;94.50;;;;;;4250094;27;20047;-56
2023/12/02 04:25:50;;;;;;;44.25;27.67;;;2.50;94.40;;;;;;4231858;28;20095;-57
2023/12/02 04:27:52;;;;;;;43.92;27.48;;;2.50;94.70;;;;;;4250220;27;20071;-57
2023/12/02 04:29:54;;;;;;;40.25;24.42;;;2.50;94.90;;;;;;4249837;27;20039;-56
2023/12/02 04:31:58;;;;;;;42.78;27.70;;;2.60;95.10;;;;;;4249936;27;20058;-55
2023/12/02 04:34:00;;;;;;;40.10;25.00;;;2.50;95.00;;;;;;4250032;27;20050;-56
2023/12/02 04:36:03;;;;;;;41.97;25.80;;;2.60;94.80;;;;;;4250445;27;20561;-55
2023/12/02 04:38:05;;;;;;;43.58;28.50;;;2.40;95.50;;;;;;4251213;27;20054;-55
2023/12/02 04:40:11;;;;;;;41.50;25.30;;;2.50;95.20;;;;;;4251335;27;20409;-56
2023/12/02 04:42:13;;;;;;;32.67;21.83;;;2.50;95.00;;;;;;4251059;27;20043;-56
2023/12/02 04:44:15;;;;;;;44.80;27.83;;;2.50;95.40;;;;;;4250268;27;20047;-55
2023/12/02 04:46:17;;;;;;;41.80;26.17;;;2.40;95.00;;;;;;4249901;27;20478;-56
2023/12/02 04:48:21;;;;;;;41.20;25.88;;;2.40;95.40;;;;;;4249740;27;20043;-56
2023/12/02 04:50:23;;;;;;;44.00;26.52;;;2.50;95.50;;;;;;4249681;27;20047;-56
2023/12/02 04:52:25;;;;;;;40.58;25.65;;;2.30;95.10;;;;;;4249435;27;20043;-56
2023/12/02 04:54:27;;;;;;;42.75;25.75;;;2.50;95.60;;;;;;4249451;27;20043;-57
2023/12/02 04:56:29;;;;;;;44.47;26.85;;;2.50;95.60;;;;;;4249429;27;20129;-55
2023/12/02 04:58:32;;;;;;;47.63;27.92;;;2.40;95.30;;;;;;4249543;27;20054;-57
2023/12/02 05:00:34;;;;;;;45.05;26.77;;;2.40;95.40;;;;;;4249666;27;20553;-56
2023/12/02 05:02:37;;;;;;;38.33;25.15;;;2.40;95.00;;;;;;4249639;27;20065;-56
2023/12/02 05:04:40;;;;;;;39.55;25.13;;;2.20;95.60;;;;;;4249533;27;20059;-55
2023/12/02 05:06:42;;;;;;;43.15;24.15;;;2.20;95.90;;;;;;4249411;27;20053;-55
2023/12/02 05:08:46;;;;;;;40.03;24.10;;;2.30;96.30;;;;;;4249539;27;20070;-55
2023/12/02 05:10:48;;;;;;;42.80;26.65;;;2.40;96.10;;;;;;4249467;27;20104;-55
2023/12/02 05:12:51;;;;;;;47.13;27.40;;;2.40;95.70;;;;;;4249696;27;20047;-56
2023/12/02 05:14:53;;;;;;;40.88;24.58;;;2.30;95.40;;;;;;4231117;28;20437;-56
2023/12/02 05:16:55;;;;;;;44.30;27.42;;;2.30;96.10;;;;;;4249633;27;20043;-60
2023/12/02 05:18:57;;;;;;;45.65;28.40;;;2.20;95.60;;;;;;4249209;27;20047;-55
2023/12/02 05:21:00;;;;;;;54.10;29.33;;;2.20;95.50;;;;;;4249239;27;20035;-57
2023/12/02 05:23:03;;;;;;;49.90;28.63;;;2.10;95.50;;;;;;4249420;27;20051;-55
2023/12/02 05:25:06;;;;;;;49.42;29.45;;;2.00;95.30;;;;;;4249124;27;20047;-55
2023/12/02 05:27:08;;;;;;;43.28;26.88;;;1.90;95.80;;;;;;4231041;28;20126;-56
2023/12/02 05:29:10;;;;;;;46.60;26.65;;;2.10;96.20;;;;;;4249226;27;20413;-57
2023/12/02 05:31:12;;;;;;;50.47;28.10;;;2.20;95.90;;;;;;4231671;28;20071;-55
2023/12/02 05:33:14;;;;;;;48.70;28.98;;;2.10;95.80;;;;;;4250463;27;20135;-55
2023/12/02 05:35:18;;;;;;;43.58;26.02;;;2.10;95.90;;;;;;4250128;27;20051;-57
2023/12/02 05:37:22;;;;;;;44.72;26.02;;;2.20;96.50;;;;;;4251046;27;20417;-55
2023/12/02 05:39:24;;;;;;;47.25;27.50;;;2.20;96.20;;;;;;4250718;27;20414;-55
2023/12/02 05:41:26;;;;;;;46.05;27.80;;;2.10;95.90;;;;;;4250672;27;20069;-57
2023/12/02 05:43:28;;;;;;;52.83;30.17;;;1.90;95.80;;;;;;4250169;27;20108;-55
2023/12/02 05:45:30;;;;;;;48.47;28.33;;;1.80;95.80;;;;;;4248903;27;20379;-56
2023/12/02 05:47:32;;;;;;;48.85;26.85;;;1.80;96.30;;;;;;4248921;27;20444;-56
2023/12/02 05:49:34;;;;;;;48.92;27.67;;;2.00;96.50;;;;;;4248711;27;20043;-56
2023/12/02 05:51:38;;;;;;;48.92;28.30;;;1.90;96.20;;;;;;4248619;27;20048;-54
2023/12/02 05:53:41;;;;;;;47.87;27.67;;;2.00;96.50;;;;;;4248962;27;20047;-55
2023/12/02 05:55:44;;;;;;;46.55;27.50;;;2.10;96.30;;;;;;4248788;27;20096;-54
2023/12/02 05:57:46;;;;;;;54.00;29.40;;;2.00;96.10;;;;;;4249712;27;20481;-58
2023/12/02 05:59:48;;;;;;;50.08;28.75;;;2.00;96.00;;;;;;4251033;27;20413;-57
2023/12/02 06:01:51;;;;;;;47.28;27.90;;;2.00;96.30;;;;;;4250326;27;20039;-56
2023/12/02 06:03:53;;;;;;;48.35;27.83;;;2.00;96.30;;;;;;4250948;27;20490;-56
2023/12/02 06:05:55;;;;;;;51.60;27.90;;;1.90;96.30;;;;;;4250912;27;20072;-58
2023/12/02 06:07:58;;;;;;;48.28;28.45;;;1.90;96.90;;;;;;4250448;27;20099;-59
2023/12/02 06:10:01;;;;;;;50.92;29.13;;;1.90;96.70;;;;;;4251434;27;20039;-58
2023/12/02 06:12:03;;;;;;;50.38;29.73;;;1.90;96.20;;;;;;4250255;27;20047;-56
2023/12/02 06:14:05;;;;;;;49.05;28.08;;;1.80;96.50;;;;;;4230509;28;20127;-57
2023/12/02 06:16:09;;;;;;;48.42;30.38;;;1.90;96.30;;;;;;4248482;27;20047;-55
2023/12/02 06:18:11;;;;;;;49.05;27.73;;;2.00;96.80;;;;;;4247660;27;20043;-55
2023/12/02 06:20:13;;;;;;;51.88;30.27;;;2.00;96.60;;;;;;4247916;27;20046;-56
2023/12/02 06:22:15;;;;;;;49.38;28.23;;;1.90;96.20;;;;;;4248447;27;20047;-55
2023/12/02 06:24:17;;;;;;;48.45;27.98;;;1.90;96.70;;;;;;4248221;27;20130;-55
2023/12/02 06:26:21;;;;;;;49.15;29.88;;;1.90;96.30;;;;;;4248339;27;20050;-57
2023/12/02 06:28:23;;;;;;;55.05;30.80;;;1.90;96.50;;;;;;4247941;27;20492;-56
2023/12/02 06:30:26;;;;;;;57.10;29.48;;;2.00;96.00;;;;;;4248183;27;20047;-56
2023/12/02 06:32:28;;;;;;;43.30;24.75;;;1.90;96.40;;;;;;4247655;27;20486;-55
2023/12/02 06:34:30;;;;;;;42.72;25.85;;;2.20;97.40;;;;;;4248175;27;20043;-57
2023/12/02 06:36:32;;;;;;;44.70;27.08;;;2.40;96.30;;;;;;4247962;27;20049;-57
2023/12/02 06:38:37;;;;;;;45.67;27.00;;;2.20;96.30;;;;;;4247578;27;20051;-56
2023/12/02 06:40:39;;;;;;;;;;;2.50;96.50;;;;;;4248491;27;20055;-55
2023/12/02 06:42:43;;;;;;;47.15;27.00;;;2.40;95.70;;;;;;4247750;27;19919;-56
2023/12/02 06:44:45;;;;;;;34.40;19.00;;;2.30;96.40;;;;;;4247375;27;20095;-56
2023/12/02 06:46:47;;;;;;;59.08;30.42;;;2.40;97.00;;;;;;4247725;27;20482;-55
2023/12/02 06:48:49;;;;;;;56.30;31.17;;;2.40;96.00;;;;;;4247366;27;20127;-54
2023/12/02 06:50:52;;;;;;;49.28;28.08;;;2.50;96.10;;;;;;4247936;27;20103;-55
2023/12/02 06:52:54;;;;;;;47.45;27.13;;;2.40;96.10;;;;;;4247996;27;20070;-55
2023/12/02 06:54:56;;;;;;;48.95;28.73;;;2.30;95.90;;;;;;4247692;27;20043;-55
2023/12/02 06:57:01;;;;;;;49.30;27.63;;;2.40;95.70;;;;;;4247401;27;20058;-56
2023/12/02 06:59:04;;;;;;;53.20;30.08;;;2.30;95.80;;;;;;4247550;27;20482;-55
2023/12/02 07:01:07;;;;;;;50.55;27.70;;;2.30;95.20;;;;;;4247749;27;20039;-55
2023/12/02 07:03:08;;;;;;;53.13;31.15;;;2.20;96.10;;;;;;4247399;27;20047;-55
2023/12/02 07:05:11;;;;;;;52.38;29.90;;;2.20;95.30;;;;;;4247562;27;20422;-55
2023/12/02 07:07:13;;;;;;;60.33;32.05;;;2.10;95.60;;;;;;4247633;27;20047;-56
2023/12/02 07:09:15;;;;;;;51.60;30.15;;;2.10;95.80;;;;;;4247529;27;20405;-55
2023/12/02 07:11:17;;;;;;;55.83;30.40;;;2.00;95.70;;;;;;4229207;28;20043;-55
2023/12/02 07:13:19;;;;;;;52.72;31.00;;;2.10;95.60;;;;;;4247656;27;20439;-56
2023/12/02 07:15:23;;;;;;;48.88;28.77;;;2.00;96.00;;;;;;4247722;27;20057;-55
2023/12/02 07:17:25;;;;;;;42.75;25.85;;;2.10;96.20;;;;;;4228959;28;20050;-55
2023/12/02 07:19:27;;;;;;;48.38;29.10;;;2.20;96.70;;;;;;4247579;28;20182;-56
2023/12/02 07:21:29;;;;;;;54.78;31.17;;;2.10;95.60;;;;;;4247640;28;20474;-55
2023/12/02 07:23:31;;;;;;;52.85;29.73;;;2.00;95.70;;;;;;4247492;28;20383;-55
2023/12/02 07:25:33;;;;;;;53.83;30.23;;;2.10;96.70;;;;;;4247940;28;20099;-55
2023/12/02 07:27:35;;;;;;;54.85;30.30;;;2.00;95.80;;;;;;4247981;28;20048;-55
2023/12/02 07:29:38;;;;;;;53.80;30.38;;;2.00;95.90;;;;;;4247786;28;20401;-57
2023/12/02 07:31:45;;;;;;;54.83;30.05;;;2.00;96.10;;;;;;4247350;28;20475;-55
2023/12/02 07:33:48;;;;;;;81.03;32.63;;;2.10;96.20;;;;;;4247349;28;20043;-56
2023/12/02 07:35:50;;;;;;;53.92;30.15;;;2.20;96.30;;;;;;4247287;28;20043;-54
2023/12/02 07:37:52;;;;;;;52.30;29.35;;;2.30;95.90;;;;;;4247289;28;20058;-55
2023/12/02 07:39:55;;;;;;;53.88;31.42;;;2.20;96.00;;;;;;4247131;28;20039;-55
2023/12/02 07:41:57;;;;;;;50.95;27.85;;;2.20;95.70;;;;;;4247119;28;20047;-55
2023/12/02 07:44:00;;;;;;;51.25;31.40;;;2.20;95.70;;;;;;4247435;28;20072;-56
2023/12/02 07:46:02;;;;;;;51.70;28.50;;;2.20;95.90;;;;;;4246685;28;20047;-55
2023/12/02 07:48:06;;;;;;;50.67;29.02;;;2.40;96.10;;;;;;4247181;28;20058;-57
2023/12/02 07:50:08;;;;;;;36.40;21.80;;;2.40;95.70;;;;;;4228956;28;20116;-55
2023/12/02 07:52:11;;;;;;;50.47;28.95;;;2.20;95.10;;;;;;4247507;28;20051;-56
2023/12/02 07:54:13;;;;;;;52.47;31.77;;;2.00;95.80;;;;;;4247448;28;20043;-55
2023/12/02 07:56:16;;;;;;;49.72;29.63;;;2.20;95.60;;;;;;4247943;27;20054;-55
2023/12/02 07:58:18;;;;;;;54.75;31.50;;;2.20;96.10;;;;;;4250881;27;20451;-56
2023/12/02 08:00:20;;;;;;;56.42;30.23;;;2.10;95.80;;;;;;4232030;28;20101;-54
2023/12/02 08:02:24;;;;;;;53.72;31.45;;;2.10;95.80;;;;;;4250584;27;20047;-55
2023/12/02 08:04:27;;;;;;;53.40;30.50;;;2.00;95.80;;;;;;4250311;27;20450;-56
2023/12/02 08:06:29;;;;;;;57.67;31.15;;;1.90;96.10;;;;;;4250639;27;20051;-56
2023/12/02 08:08:31;;;;;;;57.17;31.45;;;2.00;96.10;;;;;;4250494;27;20043;-55
2023/12/02 08:10:35;;;;;;;58.28;31.63;;;1.90;96.00;;;;;;4250378;27;20043;-56
2023/12/02 08:12:37;;;;;;;55.38;31.42;;;2.10;96.40;;;;;;4250148;27;20077;-55
2023/12/02 08:14:39;;;;;;;57.30;31.95;;;2.00;95.90;;;;;;4250010;27;20304;-55
2023/12/02 08:16:41;;;;;;;55.65;31.60;;;2.00;96.40;;;;;;4250447;27;20113;-55
2023/12/02 08:18:43;;;;;;;52.78;29.55;;;2.20;96.20;;;;;;4250220;27;20606;-55
2023/12/02 08:20:47;;;;;;;55.85;32.10;;;1.90;96.10;;;;;;4250086;27;20043;-54
2023/12/02 08:22:49;;;;;;;52.55;31.20;;;1.90;95.90;;;;;;4250327;27;20152;-55
2023/12/02 08:24:51;;;;;;;52.25;32.13;;;1.90;96.20;;;;;;4249972;27;20047;-55
2023/12/02 08:26:53;;;;;;;54.53;31.30;;;2.00;96.30;;;;;;4250053;27;20409;-56
2023/12/02 08:28:55;;;;;;;55.70;31.42;;;2.00;96.50;;;;;;4249635;27;20073;-55
2023/12/02 08:30:57;;;;;;;58.42;34.25;;;1.90;96.20;;;;;;4249738;27;20128;-54
2023/12/02 08:32:59;;;;;;;51.13;29.38;;;1.90;95.90;;;;;;4249880;27;20122;-56
2023/12/02 08:35:02;;;;;;;60.53;32.50;;;2.10;96.50;;;;;;4249937;27;20050;-56
2023/12/02 08:37:06;;;;;;;58.25;32.50;;;2.20;96.30;;;;;;4249049;27;20042;-55
2023/12/02 08:39:08;;;;;;;45.23;24.97;;;2.20;96.10;;;;;;4250045;27;20066;-55
2023/12/02 08:41:11;;;;;;;63.20;34.58;;;1.90;95.90;;;;;;4249796;27;20069;-55
2023/12/02 08:43:13;;;;;;;58.05;30.85;;;2.00;96.00;;;;;;4249533;27;20047;-56
2023/12/02 08:45:16;;;;;;;60.78;33.17;;;2.00;96.30;;;;;;4231276;28;20102;-56
2023/12/02 08:47:18;;;;;;;59.25;31.85;;;1.90;96.40;;;;;;4249618;27;20082;-55
2023/12/02 08:49:20;;;;;;;59.67;33.58;;;1.90;96.30;;;;;;4249719;27;20043;-55
2023/12/02 08:51:22;;;;;;;59.17;34.58;;;1.90;96.10;;;;;;4249617;27;20058;-56
2023/12/02 08:53:26;;;;;;;62.38;35.10;;;1.90;96.00;;;;;;4249642;27;20043;-54
2023/12/02 08:55:28;;;;;;;43.60;25.63;;;1.80;96.50;;;;;;4249902;27;20166;-56
2023/12/02 08:57:30;;;;;;;54.35;31.75;;;1.80;96.80;;;;;;4231418;28;20537;-55
2023/12/02 08:59:33;;;;;;;57.83;33.85;;;1.80;96.40;;;;;;4249780;27;20116;-55
2023/12/02 09:01:35;;;;;;;60.85;35.35;;;1.90;96.90;;;;;;4249304;27;20039;-56
2023/12/02 09:03:37;;;;;;;51.55;29.90;;;2.00;96.30;;;;;;4251727;27;20445;-55
2023/12/02 09:05:40;;;;;;;60.97;34.65;;;2.00;97.00;;;;;;4252860;27;20039;-57
2023/12/02 09:07:42;;;;;;;57.90;32.95;;;2.20;96.50;;;;;;4252708;27;20481;-57
2023/12/02 09:09:46;;;;;;;58.42;32.15;;;2.30;96.50;;;;;;4251040;27;20039;-55
2023/12/02 09:11:48;;;;;;;60.33;34.25;;;2.40;96.10;;;;;;4249789;27;20451;-56
2023/12/02 09:13:51;;;;;;;61.40;34.05;;;2.20;95.60;;;;;;4249285;27;20047;-54
2023/12/02 09:15:53;;;;;;;61.65;34.67;;;2.20;95.80;;;;;;4249556;27;20051;-55
2023/12/02 09:18:07;;;;;;;62.50;35.50;;;2.20;95.70;;;;;;4249746;27;20171;-56
2023/12/02 09:20:29;;;;;;;60.10;33.17;;;2.00;96.30;;;;;;4249302;27;20058;-56
2023/12/02 09:22:49;;;;;;;50.42;30.38;;;2.10;96.10;;;;;;4249869;27;20531;-58
2023/12/02 09:24:53;;;;;;;59.28;32.83;;;2.10;96.70;;;;;;4250044;27;20051;-55
2023/12/02 09:26:55;;;;;;;62.33;35.75;;;2.30;95.80;;;;;;4248818;27;20088;-57
2023/12/02 09:28:57;;;;;;;60.30;32.80;;;2.30;95.70;;;;;;4249292;27;20047;-55
2023/12/02 09:31:00;;;;;;;56.50;32.00;;;2.40;96.20;;;;;;4250398;27;20035;-55
2023/12/02 09:33:11;;;;;;;61.53;35.40;;;2.40;95.80;;;;;;4253175;27;20478;-54
2023/12/02 09:35:13;;;;;;;64.65;36.53;;;2.40;95.80;;;;;;4252469;27;20051;-57
2023/12/02 09:37:49;;;;;;;59.03;32.95;;;2.50;95.60;;;;;;4253497;27;20051;-55
2023/12/02 09:40:25;;;;;;;59.00;33.92;;;2.70;95.60;;;;;;4234314;28;20046;-56
2023/12/02 09:42:27;;;;;;;;;;;2.60;95.40;;;;;;4252255;27;20067;-58
2023/12/02 09:44:37;;;;;;;63.28;34.63;;;2.80;95.40;;;;;;4249479;27;19941;-56
2023/12/02 09:46:50;;;;;;;60.13;33.30;;;2.70;95.00;;;;;;4249115;27;20047;-56
2023/12/02 09:49:12;;;;;;;55.55;32.08;;;2.60;95.40;;;;;;4248722;27;20066;-55
2023/12/02 09:51:26;;;;;;;55.63;32.22;;;2.70;95.70;;;;;;4249024;27;20440;-55
2023/12/02 09:53:37;;;;;;;65.30;35.33;;;2.90;95.00;;;;;;4248685;27;20462;-57
2023/12/02 09:55:50;;;;;;;55.67;31.50;;;2.80;94.50;;;;;;4248609;27;20104;-56
2023/12/02 09:58:00;;;;;;;60.42;33.80;;;2.90;95.50;;;;;;4247666;27;20047;-55
2023/12/02 10:00:09;;;;;;;52.95;32.83;;;2.90;94.90;;;;;;4248543;27;20043;-55
2023/12/02 10:02:21;;;;;;;59.75;31.75;;;2.70;94.70;;;;;;4248754;27;20058;-56
2023/12/02 10:04:32;;;;;;;56.42;33.95;;;2.70;94.90;;;;;;4248665;27;20063;-56
2023/12/02 10:06:49;;;;;;;54.28;29.63;;;2.80;95.20;;;;;;4248395;27;20050;-57
2023/12/02 10:09:02;;;;;;;55.78;32.35;;;3.00;95.50;;;;;;4246844;27;20071;-55
2023/12/02 10:11:12;;;;;;;44.42;27.30;;;3.10;95.10;;;;;;4246539;27;20063;-55
2023/12/02 10:13:20;;;;;;;51.78;29.88;;;3.60;95.40;;;;;;4247470;27;20047;-55
2023/12/02 10:15:27;;;;;;;49.47;27.20;;;3.80;94.40;;;;;;4248302;27;20464;-55
2023/12/02 10:17:33;;;;;;;52.17;29.05;;;4.20;95.10;;;;;;4230123;28;20047;-57
2023/12/02 10:19:40;;;;;;;52.13;29.98;;;4.40;93.80;;;;;;4247546;27;20043;-55
2023/12/02 10:21:45;;;;;;;46.58;27.88;;;4.80;93.80;;;;;;4248161;27;20043;-55
2023/12/02 10:24:00;;;;;;;50.88;29.65;;;5.00;93.50;;;;;;4249922;27;20058;-55
2023/12/02 10:26:13;;;;;;;50.70;30.08;;;5.10;93.30;;;;;;4249664;27;20542;-58
2023/12/02 10:28:23;;;;;;;46.22;27.30;;;5.10;92.60;;;;;;4248390;27;20051;-57
2023/12/02 10:30:25;;;;;;;49.83;30.80;;;5.30;92.50;;;;;;4248257;27;20046;-60
2023/12/02 10:32:33;;;;;;;48.28;27.98;;;5.50;92.10;;;;;;4248015;27;20050;-55
2023/12/02 10:34:41;;;;;;;49.75;30.33;;;5.40;91.90;;;;;;4244545;27;20043;-54